Time;durP1;ratioP1;P1;durP2;ratioP2;P2;SDS_P1;SDS_P2;PMS_P1;PMS_P2;Temp;Humidity;BMP_temperature;BMP_pressure;BME280_temperature;BME280_humidity;BME280_pressure;Samples;Min_cycle;Max_cycle;Signal;HPM_P1;HPM_P2
2022/09/01 00:01:45;;;;;;;1.00;0.90;;;26.90;60.00;;;;;;4939228;29;20454;-88
2022/09/01 00:04:15;;;;;;;0.90;0.80;;;26.90;60.00;;;;;;4939111;29;20487;-89
2022/09/01 00:06:43;;;;;;;1.50;1.00;;;26.90;60.00;;;;;;4939007;29;20451;-88
2022/09/01 00:09:13;;;;;;;1.50;0.80;;;26.80;60.00;;;;;;4939182;29;20494;-89
2022/09/01 00:11:41;;;;;;;1.00;0.90;;;26.90;60.10;;;;;;4939149;29;20478;-88
2022/09/01 00:14:11;;;;;;;1.00;0.90;;;26.90;60.00;;;;;;4938950;29;20558;-88
2022/09/01 00:16:38;;;;;;;1.00;0.90;;;26.90;60.00;;;;;;4938886;29;20844;-88
2022/09/01 00:19:06;;;;;;;1.30;1.00;;;26.80;60.00;;;;;;4938636;29;21042;-88
2022/09/01 00:21:36;;;;;;;1.63;0.80;;;26.90;60.20;;;;;;4939034;29;20490;-88
2022/09/01 00:24:05;;;;;;;1.03;0.93;;;26.90;60.20;;;;;;4938984;29;20534;-88
2022/09/01 00:26:32;;;;;;;0.90;0.80;;;26.80;60.10;;;;;;4938568;29;20463;-88
2022/09/01 00:28:59;;;;;;;0.90;0.80;;;26.80;60.20;;;;;;4938778;29;20471;-89
2022/09/01 00:31:28;;;;;;;0.90;0.80;;;26.80;60.20;;;;;;4938756;29;20443;-88
2022/09/01 00:33:56;;;;;;;1.20;1.10;;;26.90;60.30;;;;;;4938427;29;20450;-89
2022/09/01 00:36:23;;;;;;;0.90;0.80;;;26.80;60.20;;;;;;4938274;29;20519;-88
2022/09/01 00:38:50;;;;;;;0.90;0.80;;;26.90;60.30;;;;;;4938725;29;20534;-88
2022/09/01 00:41:19;;;;;;;0.87;0.70;;;26.80;60.20;;;;;;4938336;29;20575;-88
2022/09/01 00:43:48;;;;;;;0.83;0.73;;;26.80;60.20;;;;;;4938581;29;20545;-88
2022/09/01 00:46:17;;;;;;;1.10;1.00;;;26.80;60.20;;;;;;4938275;29;20541;-88
2022/09/01 00:48:47;;;;;;;0.80;0.70;;;26.80;60.20;;;;;;4937976;29;20494;-88
2022/09/01 00:51:15;;;;;;;1.03;0.93;;;26.80;60.20;;;;;;4938442;29;20447;-89
2022/09/01 00:53:44;;;;;;;1.00;0.90;;;26.80;60.20;;;;;;4938177;29;20451;-88
2022/09/01 00:56:13;;;;;;;1.00;0.90;;;26.80;60.30;;;;;;4937946;29;20986;-88
2022/09/01 00:58:40;;;;;;;1.00;0.90;;;26.80;60.30;;;;;;4938221;29;20451;-87
2022/09/01 01:01:09;;;;;;;0.90;0.77;;;26.80;60.30;;;;;;4938251;29;20443;-88
2022/09/01 01:03:36;;;;;;;1.00;0.90;;;26.80;60.30;;;;;;4938093;29;20538;-89
2022/09/01 01:06:08;;;;;;;1.17;0.70;;;26.80;60.40;;;;;;4938291;29;20442;-88
2022/09/01 01:08:38;;;;;;;1.00;0.80;;;26.80;60.40;;;;;;4937676;29;20481;-88
2022/09/01 01:11:09;;;;;;;0.90;0.80;;;26.80;60.50;;;;;;4938022;29;20486;-89
2022/09/01 01:13:50;;;;;;;1.33;0.70;;;26.80;60.50;;;;;;4937765;29;20447;-88
2022/09/01 01:16:16;;;;;;;1.17;0.90;;;26.80;60.30;;;;;;4937839;29;20451;-89
2022/09/01 01:18:43;;;;;;;0.80;0.80;;;26.80;60.50;;;;;;4937814;29;20530;-88
2022/09/01 01:24:10;;;;;;;1.80;1.17;;;26.80;60.30;;;;;;4930400;29;20794;-88
2022/09/01 01:26:38;;;;;;;1.20;1.10;;;26.80;61.30;;;;;;4937555;29;21042;-89
2022/09/01 01:29:08;;;;;;;0.97;0.87;;;26.80;60.40;;;;;;4937729;29;20443;-88
2022/09/01 01:31:36;;;;;;;1.10;1.00;;;26.80;60.40;;;;;;4937754;29;20813;-88
2022/09/01 01:34:06;;;;;;;0.80;0.80;;;26.80;60.40;;;;;;4937347;29;20455;-88
2022/09/01 01:36:36;;;;;;;0.90;0.80;;;26.80;60.40;;;;;;4937556;29;20961;-88
2022/09/01 01:39:08;;;;;;;0.80;0.80;;;26.80;60.40;;;;;;4937603;29;20510;-88
2022/09/01 01:41:39;;;;;;;0.93;0.83;;;26.80;60.40;;;;;;4937340;29;20443;-88
2022/09/01 01:44:08;;;;;;;1.10;1.00;;;26.80;60.40;;;;;;4937348;29;20478;-88
2022/09/01 01:46:42;;;;;;;0.87;0.80;;;26.80;60.50;;;;;;4937402;29;20879;-89
2022/09/01 01:49:10;;;;;;;0.80;0.70;;;26.80;60.50;;;;;;4937447;29;20440;-88
2022/09/01 01:51:37;;;;;;;0.97;0.87;;;26.80;60.50;;;;;;4937214;29;20506;-88
2022/09/01 01:54:04;;;;;;;0.80;0.70;;;26.80;60.70;;;;;;4937186;29;20443;-88
2022/09/01 01:56:36;;;;;;;0.90;0.80;;;26.80;60.60;;;;;;4936764;29;20993;-88
2022/09/01 01:59:03;;;;;;;1.00;0.90;;;26.80;60.50;;;;;;4936743;29;20534;-88
2022/09/01 02:01:32;;;;;;;1.00;0.90;;;26.80;60.60;;;;;;4936585;29;20502;-88
2022/09/01 02:04:00;;;;;;;1.00;0.90;;;26.80;60.50;;;;;;4937593;29;20878;-88
2022/09/01 02:06:28;;;;;;;1.43;1.20;;;26.80;60.50;;;;;;4936827;29;20478;-88
2022/09/01 02:08:57;;;;;;;0.83;0.80;;;26.80;60.60;;;;;;4936541;29;20475;-88
2022/09/01 02:11:25;;;;;;;1.67;0.90;;;26.80;60.60;;;;;;4936715;29;20451;-89
2022/09/01 02:13:55;;;;;;;0.80;0.70;;;26.80;60.60;;;;;;4936700;29;20812;-89
2022/09/01 02:16:22;;;;;;;0.93;0.83;;;26.70;60.50;;;;;;4936617;29;20454;-89
2022/09/01 02:18:52;;;;;;;0.90;0.80;;;26.70;60.60;;;;;;4937657;29;20550;-88
2022/09/01 02:21:22;;;;;;;0.83;0.70;;;26.70;60.60;;;;;;4936661;29;20440;-89
2022/09/01 02:23:59;;;;;;;0.87;0.80;;;26.70;60.60;;;;;;4936590;29;20509;-89
2022/09/01 02:26:30;;;;;;;1.00;0.90;;;26.80;60.80;;;;;;4936438;29;20506;-88
2022/09/01 02:29:00;;;;;;;0.80;0.70;;;26.70;60.60;;;;;;4936827;29;20443;-88
2022/09/01 02:31:28;;;;;;;0.80;0.80;;;26.70;60.60;;;;;;4936714;29;20502;-88
2022/09/01 02:33:56;;;;;;;1.00;0.90;;;26.70;60.60;;;;;;4936625;29;20479;-89
2022/09/01 02:36:24;;;;;;;0.83;0.80;;;26.70;60.60;;;;;;4936630;29;20483;-88
2022/09/01 02:38:51;;;;;;;1.10;1.00;;;26.70;60.70;;;;;;4936361;29;20498;-89
2022/09/01 02:41:21;;;;;;;0.93;0.80;;;26.70;60.60;;;;;;4936161;29;20923;-88
2022/09/01 02:43:49;;;;;;;0.87;0.80;;;26.70;60.70;;;;;;4936844;29;20448;-88
2022/09/01 02:46:16;;;;;;;1.00;0.90;;;26.70;60.90;;;;;;4936268;29;20447;-88
2022/09/01 02:48:44;;;;;;;1.00;0.90;;;26.70;60.90;;;;;;4936283;29;20479;-88
2022/09/01 02:51:15;;;;;;;0.90;0.80;;;26.70;60.80;;;;;;4936283;29;20450;-88
2022/09/01 02:53:43;;;;;;;0.90;0.80;;;26.70;60.90;;;;;;4936524;29;20498;-89
2022/09/01 02:56:13;;;;;;;0.80;0.70;;;26.70;60.90;;;;;;4936159;29;20562;-89
2022/09/01 02:58:44;;;;;;;0.80;0.80;;;26.70;60.80;;;;;;4936262;29;20582;-88
2022/09/01 03:01:13;;;;;;;1.00;0.90;;;26.70;60.90;;;;;;4936635;29;20451;-89
2022/09/01 03:03:40;;;;;;;0.80;0.70;;;26.70;60.90;;;;;;4936286;29;20538;-88
2022/09/01 03:06:09;;;;;;;1.00;0.90;;;26.70;60.90;;;;;;4936415;29;20551;-88
2022/09/01 03:08:38;;;;;;;1.17;1.07;;;26.70;60.90;;;;;;4936136;29;20479;-89
2022/09/01 03:11:09;;;;;;;0.80;0.80;;;26.70;60.90;;;;;;4937224;29;20498;-89
2022/09/01 03:13:37;;;;;;;0.90;0.80;;;26.70;61.00;;;;;;4940152;29;20462;-88
2022/09/01 03:16:06;;;;;;;0.90;0.70;;;26.70;60.90;;;;;;4940364;29;20546;-87
2022/09/01 03:18:33;;;;;;;0.83;0.77;;;26.70;61.10;;;;;;4939872;29;20990;-88
2022/09/01 03:21:01;;;;;;;0.80;0.80;;;26.70;62.10;;;;;;4940203;29;20491;-88
2022/09/01 03:23:30;;;;;;;0.80;0.70;;;26.70;61.00;;;;;;4940255;29;20455;-88
2022/09/01 03:25:58;;;;;;;1.00;0.80;;;26.70;61.10;;;;;;4951133;29;20490;-89
2022/09/01 03:28:25;;;;;;;0.80;0.70;;;26.70;61.00;;;;;;4959596;29;20510;-87
2022/09/01 03:30:54;;;;;;;0.80;0.70;;;26.70;61.00;;;;;;4963579;29;20478;-88
2022/09/01 03:33:25;;;;;;;0.90;0.83;;;26.70;61.10;;;;;;4952073;29;20527;-88
2022/09/01 03:35:52;;;;;;;0.90;0.80;;;26.70;61.00;;;;;;4939882;29;20923;-89
2022/09/01 03:38:22;;;;;;;1.00;0.90;;;26.70;61.00;;;;;;4939992;29;20576;-88
2022/09/01 03:40:51;;;;;;;1.07;0.97;;;26.70;60.90;;;;;;4939704;29;20942;-90
2022/09/01 03:43:23;;;;;;;0.90;0.70;;;26.70;61.00;;;;;;4939579;29;20455;-89
2022/09/01 03:45:50;;;;;;;1.00;0.90;;;26.70;61.00;;;;;;4939701;29;20439;-88
2022/09/01 03:48:19;;;;;;;0.90;0.80;;;26.70;61.10;;;;;;4939375;29;20451;-89
2022/09/01 03:50:46;;;;;;;0.80;0.80;;;26.70;61.00;;;;;;4939531;29;20542;-89
2022/09/01 03:53:15;;;;;;;1.20;0.90;;;26.70;61.10;;;;;;4939562;29;20451;-89
2022/09/01 03:55:45;;;;;;;0.80;0.70;;;26.70;61.00;;;;;;4939337;29;20546;-88
2022/09/01 03:58:17;;;;;;;0.90;0.80;;;26.70;61.10;;;;;;4939562;29;20848;-89
2022/09/01 04:00:48;;;;;;;1.00;0.90;;;26.70;61.00;;;;;;4939630;29;20475;-89
2022/09/01 04:03:21;;;;;;;0.90;0.77;;;26.70;61.00;;;;;;4939183;29;20485;-89
2022/09/01 04:05:50;;;;;;;1.00;0.70;;;26.70;61.10;;;;;;4939066;29;20455;-88
2022/09/01 04:08:19;;;;;;;0.80;0.70;;;26.70;61.10;;;;;;4938975;29;21089;-88
2022/09/01 04:10:49;;;;;;;1.00;0.90;;;26.70;61.10;;;;;;4938933;29;20455;-89
2022/09/01 04:13:18;;;;;;;0.80;0.80;;;26.70;61.10;;;;;;4939432;29;20447;-88
2022/09/01 04:15:46;;;;;;;0.80;0.80;;;26.70;61.00;;;;;;4939061;29;20541;-90
2022/09/01 04:18:19;;;;;;;0.80;0.70;;;26.70;61.00;;;;;;4939004;29;20522;-90
2022/09/01 04:20:48;;;;;;;1.83;0.87;;;26.70;61.20;;;;;;4939095;29;20526;-89
2022/09/01 04:23:25;;;;;;;1.40;0.80;;;26.70;61.20;;;;;;4938486;29;20455;-88
2022/09/01 04:25:55;;;;;;;1.00;0.90;;;26.70;61.00;;;;;;4938669;29;20474;-89
2022/09/01 04:28:25;;;;;;;0.80;0.80;;;26.60;62.10;;;;;;4939034;29;20454;-89
2022/09/01 04:30:57;;;;;;;0.80;0.70;;;26.70;61.20;;;;;;4938899;29;20450;-89
2022/09/01 04:33:26;;;;;;;0.90;0.80;;;26.70;61.10;;;;;;4938815;29;20494;-89
2022/09/01 04:35:55;;;;;;;1.00;0.90;;;26.70;61.30;;;;;;4938969;29;20451;-88
2022/09/01 04:38:24;;;;;;;0.90;0.80;;;26.60;61.20;;;;;;4938479;29;20494;-88
2022/09/01 04:40:56;;;;;;;1.00;0.90;;;26.60;61.10;;;;;;4938774;29;20951;-88
2022/09/01 04:43:23;;;;;;;1.00;0.90;;;26.60;61.20;;;;;;4938623;29;20447;-88
2022/09/01 04:45:50;;;;;;;0.90;0.80;;;26.60;61.20;;;;;;4938698;29;20858;-88
2022/09/01 04:48:21;;;;;;;0.80;0.80;;;26.60;61.30;;;;;;4938671;29;20478;-88
2022/09/01 04:50:50;;;;;;;0.87;0.83;;;26.60;61.30;;;;;;4938650;29;20860;-89
2022/09/01 04:53:18;;;;;;;1.10;0.90;;;26.60;61.40;;;;;;4938103;29;20978;-88
2022/09/01 04:55:46;;;;;;;1.00;0.90;;;26.60;61.30;;;;;;4938214;29;20471;-88
2022/09/01 04:58:18;;;;;;;0.80;0.80;;;26.60;61.40;;;;;;4938451;29;20578;-88
2022/09/01 05:00:47;;;;;;;0.97;0.87;;;26.60;61.40;;;;;;4938950;29;20537;-89
2022/09/01 05:03:15;;;;;;;0.87;0.80;;;26.60;61.40;;;;;;4938120;29;20447;-88
2022/09/01 05:05:45;;;;;;;0.87;0.80;;;26.60;61.40;;;;;;4938203;29;20454;-88
2022/09/01 05:08:14;;;;;;;0.90;0.80;;;26.60;61.40;;;;;;4937696;29;20475;-89
2022/09/01 05:10:43;;;;;;;1.00;0.90;;;26.60;61.30;;;;;;4938056;29;20904;-88
2022/09/01 05:13:11;;;;;;;0.90;0.80;;;26.60;61.30;;;;;;4937890;29;20447;-89
2022/09/01 05:15:45;;;;;;;0.90;0.80;;;26.60;61.40;;;;;;4937991;29;20475;-88
2022/09/01 05:18:13;;;;;;;1.27;0.80;;;26.60;61.50;;;;;;4938059;29;20883;-88
2022/09/01 05:20:41;;;;;;;1.10;1.00;;;26.60;61.40;;;;;;4937646;29;20451;-88
2022/09/01 05:23:12;;;;;;;0.90;0.80;;;26.60;61.40;;;;;;4937899;29;20530;-89
2022/09/01 05:25:40;;;;;;;0.90;0.80;;;26.60;61.40;;;;;;4938022;29;20921;-88
2022/09/01 05:28:11;;;;;;;0.83;0.73;;;26.60;61.40;;;;;;4941686;29;20447;-89
2022/09/01 05:30:39;;;;;;;0.90;0.83;;;26.50;61.30;;;;;;4942755;29;20938;-89
2022/09/01 05:33:15;;;;;;;1.00;0.90;;;26.60;61.40;;;;;;4940320;29;20458;-88
2022/09/01 05:35:43;;;;;;;1.00;0.80;;;26.60;61.50;;;;;;4937572;29;20613;-89
2022/09/01 05:38:14;;;;;;;1.20;0.90;;;26.60;61.40;;;;;;4937389;29;20510;-88
2022/09/01 05:40:42;;;;;;;0.97;0.87;;;26.50;61.40;;;;;;4937397;29;20451;-88
2022/09/01 05:43:11;;;;;;;0.90;0.80;;;26.50;61.40;;;;;;4937336;29;20454;-88
2022/09/01 05:45:42;;;;;;;0.80;0.70;;;26.50;61.40;;;;;;4937322;29;20471;-89
2022/09/01 05:48:11;;;;;;;0.80;0.70;;;26.50;61.40;;;;;;4937595;29;20450;-89
2022/09/01 05:50:41;;;;;;;0.80;0.80;;;26.50;61.50;;;;;;4937245;29;20538;-88
2022/09/01 05:53:14;;;;;;;0.80;0.70;;;26.50;61.50;;;;;;4937313;29;20502;-89
2022/09/01 05:55:43;;;;;;;1.00;0.90;;;26.50;61.50;;;;;;4937490;29;20489;-89
2022/09/01 05:58:12;;;;;;;0.80;0.80;;;26.50;61.50;;;;;;4924075;29;20480;-88
2022/09/01 06:00:41;;;;;;;0.97;0.87;;;26.50;61.50;;;;;;4918535;29;20511;-88
2022/09/01 06:03:09;;;;;;;0.80;0.80;;;26.50;61.40;;;;;;4918316;29;20444;-88
2022/09/01 06:05:37;;;;;;;0.80;0.77;;;26.50;61.50;;;;;;4927471;29;20959;-89
2022/09/01 06:08:05;;;;;;;6.13;1.07;;;26.50;62.00;;;;;;4936808;29;20522;-87
2022/09/01 06:10:36;;;;;;;1.13;1.03;;;26.50;61.40;;;;;;4937257;29;20455;-87
2022/09/01 06:13:04;;;;;;;1.73;1.10;;;26.20;58.40;;;;;;4937178;29;20447;-89
2022/09/01 06:15:32;;;;;;;1.40;1.17;;;26.00;58.30;;;;;;4936803;29;20931;-89
2022/09/01 06:17:59;;;;;;;1.93;1.20;;;25.80;58.10;;;;;;4937736;29;20575;-88
2022/09/01 06:20:26;;;;;;;2.60;1.10;;;25.60;58.30;;;;;;4937486;29;20506;-85
2022/09/01 06:22:53;;;;;;;3.30;1.17;;;25.70;58.50;;;;;;4936595;29;20478;-86
2022/09/01 06:25:21;;;;;;;4.90;1.33;;;25.70;58.50;;;;;;4936525;29;20514;-85
2022/09/01 06:27:48;;;;;;;1.57;1.47;;;25.50;58.50;;;;;;4936362;29;20443;-86
2022/09/01 06:30:19;;;;;;;1.40;1.10;;;25.40;58.30;;;;;;4936880;29;20507;-86
2022/09/01 06:32:48;;;;;;;1.90;1.40;;;25.40;58.40;;;;;;4936507;29;20451;-86
2022/09/01 06:35:16;;;;;;;1.50;1.40;;;25.30;58.40;;;;;;4936720;29;20435;-86
2022/09/01 06:37:44;;;;;;;1.97;1.27;;;25.20;58.50;;;;;;4936363;29;20959;-86
2022/09/01 06:40:16;;;;;;;2.77;1.30;;;25.20;58.60;;;;;;4936544;29;20448;-86
2022/09/01 06:42:46;;;;;;;1.40;1.30;;;25.20;58.60;;;;;;4936499;29;20938;-87
2022/09/01 06:45:13;;;;;;;3.37;1.30;;;25.10;58.50;;;;;;4936072;29;20457;-87
2022/09/01 06:47:43;;;;;;;2.53;1.20;;;25.10;58.60;;;;;;4936539;29;20510;-87
2022/09/01 06:50:13;;;;;;;2.13;1.07;;;25.10;58.60;;;;;;4936784;29;20447;-87
2022/09/01 06:52:41;;;;;;;3.43;1.33;;;25.10;58.70;;;;;;4936100;29;21323;-87
2022/09/01 06:55:11;;;;;;;1.90;1.10;;;25.10;58.80;;;;;;4936108;29;20527;-87
2022/09/01 06:57:38;;;;;;;2.90;1.20;;;25.20;58.90;;;;;;4917269;29;20873;-86
2022/09/01 07:00:16;;;;;;;5.80;1.13;;;25.20;58.90;;;;;;4917410;29;20579;-87
2022/09/01 07:02:44;;;;;;;6.57;1.10;;;25.20;59.00;;;;;;4917511;29;20495;-85
2022/09/01 07:05:16;;;;;;;1.57;1.47;;;25.30;59.00;;;;;;4918148;29;20491;-88
2022/09/01 07:07:50;;;;;;;2.70;1.37;;;25.30;59.10;;;;;;4926877;29;20538;-88
2022/09/01 07:10:21;;;;;;;5.40;1.30;;;25.30;59.10;;;;;;4936287;29;20446;-85
2022/09/01 07:12:48;;;;;;;2.13;1.23;;;25.30;59.10;;;;;;4936147;29;20447;-86
2022/09/01 07:15:16;;;;;;;1.30;1.20;;;25.30;59.00;;;;;;4936622;29;20490;-85
2022/09/01 07:17:48;;;;;;;3.47;1.30;;;25.30;59.50;;;;;;4936169;29;20792;-83
2022/09/01 07:20:15;;;;;;;6.00;1.30;;;25.40;59.00;;;;;;4935780;29;20554;-83
2022/09/01 07:22:42;;;;;;;2.30;1.10;;;25.40;58.90;;;;;;4935973;29;20542;-84
2022/09/01 07:25:11;;;;;;;3.80;1.40;;;25.50;58.90;;;;;;4952141;29;20497;-82
2022/09/01 07:27:38;;;;;;;2.17;1.20;;;25.60;59.10;;;;;;4954887;28;20455;-88
2022/09/01 07:30:08;;;;;;;3.10;1.10;;;25.60;59.20;;;;;;4954851;29;20533;-84
2022/09/01 07:32:35;;;;;;;1.10;0.90;;;25.60;59.10;;;;;;4954962;29;20447;-84
2022/09/01 07:35:06;;;;;;;2.17;1.23;;;25.60;58.90;;;;;;4954491;29;20533;-83
2022/09/01 07:37:36;;;;;;;1.30;1.20;;;25.60;58.80;;;;;;4955044;29;20454;-84
2022/09/01 07:40:05;;;;;;;4.17;1.20;;;25.70;58.90;;;;;;4954516;29;20489;-85
2022/09/01 07:42:32;;;;;;;3.50;1.50;;;25.80;58.90;;;;;;4955156;29;20481;-84
2022/09/01 07:44:59;;;;;;;4.73;1.30;;;25.80;59.00;;;;;;4955251;29;20878;-84
2022/09/01 07:47:28;;;;;;;6.47;1.50;;;25.80;58.90;;;;;;4954554;29;20465;-85
2022/09/01 07:49:55;;;;;;;4.73;1.13;;;25.90;58.90;;;;;;4955098;28;20442;-84
2022/09/01 07:52:24;;;;;;;2.20;1.50;;;25.90;58.80;;;;;;4954610;28;20443;-84
2022/09/01 07:54:51;;;;;;;3.13;1.70;;;25.90;58.80;;;;;;4954885;28;20989;-86
2022/09/01 07:57:18;;;;;;;3.70;1.10;;;26.00;59.20;;;;;;4954872;28;20462;-84
2022/09/01 07:59:45;;;;;;;3.53;1.47;;;26.00;59.50;;;;;;4958438;29;20478;-85
2022/09/01 08:02:12;;;;;;;5.53;1.03;;;26.10;59.70;;;;;;4978055;29;20443;-85
2022/09/01 08:04:39;;;;;;;3.80;1.10;;;26.20;59.90;;;;;;4975982;28;20465;-85
2022/09/01 08:07:06;;;;;;;2.57;1.20;;;26.20;60.20;;;;;;4974365;28;20475;-85
2022/09/01 08:09:36;;;;;;;1.20;1.00;;;26.20;60.20;;;;;;4939609;29;20858;-85
2022/09/01 08:12:04;;;;;;;1.57;1.20;;;26.30;60.00;;;;;;4938994;29;20851;-89
2022/09/01 08:14:31;;;;;;;11.67;1.63;;;26.20;59.60;;;;;;4938867;29;20445;-81
2022/09/01 08:16:58;;;;;;;3.43;1.10;;;26.30;59.50;;;;;;4938915;29;20485;-87
2022/09/01 08:19:26;;;;;;;3.87;1.40;;;26.30;59.50;;;;;;4939407;29;20502;-87
2022/09/01 08:21:53;;;;;;;2.00;1.20;;;26.40;59.60;;;;;;4921985;29;20572;-88
2022/09/01 08:27:03;;;;;;;2.90;0.90;;;26.40;59.60;;;;;;4862324;29;20463;-83
2022/09/01 08:29:30;;;;;;;2.17;1.03;;;26.40;59.60;;;;;;4915672;29;20448;-85
2022/09/01 08:31:58;;;;;;;1.40;1.30;;;26.40;59.50;;;;;;4931996;29;20550;-84
2022/09/01 08:34:25;;;;;;;1.00;0.90;;;26.40;59.30;;;;;;4937735;29;20447;-84
2022/09/01 08:36:52;;;;;;;2.80;0.97;;;26.40;59.40;;;;;;4937742;29;20486;-84
2022/09/01 08:39:19;;;;;;;3.87;1.20;;;26.40;59.60;;;;;;4937838;29;20495;-85
2022/09/01 08:41:56;;;;;;;1.57;1.10;;;26.40;59.80;;;;;;4937981;29;20447;-84
2022/09/01 08:44:34;;;;;;;1.63;1.10;;;26.40;59.90;;;;;;4937714;29;20485;-84
2022/09/01 08:47:05;;;;;;;1.40;1.00;;;26.40;59.90;;;;;;4938253;29;20470;-85
2022/09/01 08:49:35;;;;;;;3.30;1.30;;;26.40;59.90;;;;;;4938167;29;20461;-84
2022/09/01 08:52:11;;;;;;;2.00;1.00;;;26.40;59.90;;;;;;4937778;29;20451;-84
2022/09/01 08:54:44;;;;;;;3.00;1.10;;;26.40;60.00;;;;;;4938593;29;20466;-84
2022/09/01 08:57:15;;;;;;;3.47;1.20;;;26.50;60.00;;;;;;4938013;29;20455;-86
2022/09/01 08:59:44;;;;;;;4.00;1.13;;;26.50;60.10;;;;;;4937799;29;20499;-85
2022/09/01 09:02:29;;;;;;;1.93;0.90;;;26.50;60.10;;;;;;4937868;29;20538;-85
2022/09/01 09:05:03;;;;;;;2.70;1.00;;;26.50;60.30;;;;;;4938071;29;20827;-85
2022/09/01 09:07:46;;;;;;;1.30;1.20;;;26.50;60.40;;;;;;4937810;29;20513;-85
2022/09/01 09:10:19;;;;;;;1.30;1.20;;;26.50;60.50;;;;;;4937703;29;20443;-85
2022/09/01 09:12:58;;;;;;;5.53;1.20;;;26.50;60.50;;;;;;4937824;29;20443;-85
2022/09/01 09:15:33;;;;;;;4.13;1.00;;;26.50;60.50;;;;;;4937765;29;20471;-85
2022/09/01 09:18:13;;;;;;;2.33;1.10;;;26.50;61.40;;;;;;4937589;29;20846;-85
2022/09/01 09:20:41;;;;;;;1.47;0.87;;;26.50;61.30;;;;;;4937616;29;20586;-85
2022/09/01 09:23:16;;;;;;;1.40;1.10;;;26.50;60.40;;;;;;4937759;29;20447;-85
2022/09/01 09:25:43;;;;;;;1.00;0.90;;;26.50;60.50;;;;;;4937635;29;20549;-85
2022/09/01 09:28:10;;;;;;;1.00;0.90;;;26.50;60.60;;;;;;4937705;29;20445;-85
2022/09/01 09:30:38;;;;;;;3.90;0.97;;;26.50;60.70;;;;;;4937839;29;20929;-85
2022/09/01 09:33:09;;;;;;;1.00;0.90;;;26.50;60.60;;;;;;4937404;29;20538;-85
2022/09/01 09:35:39;;;;;;;1.83;0.90;;;26.50;60.50;;;;;;4937585;29;20859;-85
2022/09/01 09:38:21;;;;;;;1.30;0.90;;;26.50;60.60;;;;;;4937585;29;21009;-85
2022/09/01 09:41:00;;;;;;;0.90;0.80;;;26.50;60.50;;;;;;4937684;29;20491;-85
2022/09/01 09:43:29;;;;;;;1.10;0.90;;;26.50;60.40;;;;;;4937717;29;20851;-85
2022/09/01 09:46:22;;;;;;;2.60;0.93;;;26.50;60.60;;;;;;4937563;29;20994;-85
2022/09/01 09:49:05;;;;;;;1.33;0.80;;;26.50;60.50;;;;;;4937545;29;20530;-85
2022/09/01 09:51:31;;;;;;;1.10;1.00;;;26.50;60.50;;;;;;4937422;29;20490;-85
2022/09/01 09:54:13;;;;;;;3.47;1.00;;;26.50;60.50;;;;;;4937429;29;20542;-85
2022/09/01 09:56:43;;;;;;;1.40;0.90;;;26.50;60.40;;;;;;4937228;29;20934;-85
2022/09/01 09:59:20;;;;;;;2.13;0.90;;;26.50;60.80;;;;;;4937187;29;21009;-85
2022/09/01 10:01:50;;;;;;;0.97;0.87;;;26.50;60.40;;;;;;4937530;29;20530;-85
2022/09/01 10:04:34;;;;;;;1.17;1.07;;;26.50;60.40;;;;;;4937089;29;20514;-85
2022/09/01 10:07:01;;;;;;;1.00;0.83;;;26.50;60.50;;;;;;4936793;29;20509;-85
2022/09/01 10:09:37;;;;;;;0.83;0.80;;;26.50;60.70;;;;;;4937053;29;20803;-85
2022/09/01 10:12:05;;;;;;;3.33;1.00;;;26.60;60.80;;;;;;4936346;29;20553;-85
2022/09/01 10:14:40;;;;;;;1.20;0.97;;;26.50;61.00;;;;;;4936731;29;20483;-85
2022/09/01 10:17:14;;;;;;;1.50;1.10;;;26.50;61.10;;;;;;4936340;29;20525;-86
2022/09/01 10:19:48;;;;;;;1.10;0.90;;;26.50;61.00;;;;;;4936372;29;20487;-86
2022/09/01 10:22:15;;;;;;;1.53;1.10;;;26.50;60.80;;;;;;4936101;29;20481;-85
2022/09/01 10:24:43;;;;;;;2.30;0.90;;;26.50;60.80;;;;;;4936326;29;21073;-86
2022/09/01 10:27:19;;;;;;;2.13;1.00;;;26.60;61.10;;;;;;4935963;29;20447;-86
2022/09/01 10:29:50;;;;;;;1.53;1.00;;;26.60;61.30;;;;;;4935829;29;20986;-86
2022/09/01 10:32:24;;;;;;;1.10;1.00;;;26.60;61.40;;;;;;4935890;29;20510;-86
2022/09/01 10:34:53;;;;;;;1.20;1.00;;;26.60;61.40;;;;;;4936043;29;20532;-86
2022/09/01 10:37:21;;;;;;;1.27;1.00;;;26.60;61.50;;;;;;4935885;29;20475;-86
2022/09/01 10:40:11;;;;;;;1.40;1.17;;;26.60;61.50;;;;;;4935145;29;21036;-85
2022/09/01 10:42:41;;;;;;;1.63;0.90;;;26.60;61.50;;;;;;4916712;29;20499;-86
2022/09/01 10:45:17;;;;;;;1.43;0.90;;;26.60;61.60;;;;;;4919075;29;20479;-88
2022/09/01 10:47:46;;;;;;;3.90;1.10;;;26.60;61.50;;;;;;4936111;29;20824;-88
2022/09/01 10:50:27;;;;;;;1.17;0.90;;;26.60;61.50;;;;;;4936176;29;20455;-88
2022/09/01 12:31:16;;;;;;;1.13;1.03;;;26.50;62.40;;;;;;4957886;28;20429;-84
2022/09/01 12:33:43;;;;;;;1.00;0.90;;;26.50;62.70;;;;;;4957835;28;20489;-84
2022/09/01 12:36:22;;;;;;;1.10;1.00;;;26.60;62.60;;;;;;4957865;28;20930;-85
2022/09/01 12:38:50;;;;;;;1.67;0.90;;;26.60;62.40;;;;;;4957872;28;20456;-84
2022/09/01 12:41:32;;;;;;;1.40;1.00;;;26.60;62.40;;;;;;4957648;29;20816;-84
2022/09/01 12:44:26;;;;;;;0.80;0.80;;;26.70;62.40;;;;;;4957289;28;20453;-84
2022/09/01 12:46:55;;;;;;;2.13;0.80;;;26.70;62.40;;;;;;4957557;28;20454;-84
2022/09/01 12:49:24;;;;;;;1.20;0.93;;;26.70;62.40;;;;;;4957696;28;20536;-84
2022/09/01 12:52:17;;;;;;;1.20;1.10;;;26.70;62.40;;;;;;4957550;29;20438;-85
2022/09/01 12:54:45;;;;;;;1.10;0.90;;;26.70;62.30;;;;;;4957391;28;20474;-84
2022/09/01 12:57:26;;;;;;;2.70;0.90;;;26.70;62.40;;;;;;4957837;29;20785;-85
2022/09/01 13:00:07;;;;;;;6.83;1.10;;;26.70;62.30;;;;;;4957213;28;20497;-85
2022/09/01 13:02:38;;;;;;;2.23;1.03;;;26.70;62.20;;;;;;4957552;29;20450;-85
2022/09/01 13:05:27;;;;;;;1.27;1.00;;;26.70;62.30;;;;;;4957485;29;20800;-85
2022/09/01 13:07:55;;;;;;;6.60;1.17;;;26.80;62.30;;;;;;4957266;29;20481;-85
2022/09/01 13:10:23;;;;;;;1.30;1.10;;;26.70;62.40;;;;;;4957372;29;20438;-85
2022/09/01 13:12:51;;;;;;;1.93;1.10;;;26.70;62.30;;;;;;4956993;29;20446;-85
2022/09/01 13:15:19;;;;;;;0.80;0.80;;;26.70;62.30;;;;;;4956997;28;20537;-85
2022/09/01 13:17:47;;;;;;;0.90;0.80;;;26.80;62.40;;;;;;4957327;28;20908;-89
2022/09/01 13:20:15;;;;;;;0.80;0.80;;;26.80;62.40;;;;;;4957057;28;20492;-89
2022/09/01 13:22:43;;;;;;;1.00;0.90;;;26.80;62.40;;;;;;4957104;29;20461;-85
2022/09/01 13:25:12;;;;;;;0.80;0.70;;;26.80;62.40;;;;;;4956703;28;20510;-89
2022/09/01 13:27:43;;;;;;;2.13;1.10;;;26.80;62.40;;;;;;4956948;29;20454;-86
2022/09/01 13:30:13;;;;;;;3.03;1.10;;;26.80;62.40;;;;;;4942945;29;20483;-86
2022/09/01 13:32:40;;;;;;;0.90;0.80;;;26.80;62.40;;;;;;4937776;29;20794;-86
2022/09/01 13:35:09;;;;;;;1.00;0.83;;;26.80;63.30;;;;;;4937611;29;20447;-86
2022/09/01 13:37:36;;;;;;;1.90;1.40;;;26.80;62.40;;;;;;4937563;29;20985;-89
2022/09/01 13:40:04;;;;;;;1.07;0.97;;;26.80;62.40;;;;;;4937496;29;21017;-86
2022/09/01 13:42:31;;;;;;;0.80;0.70;;;26.80;62.40;;;;;;4937415;29;20453;-85
2022/09/01 13:44:58;;;;;;;1.67;1.03;;;26.80;62.40;;;;;;4937236;29;20477;-86
2022/09/01 13:47:25;;;;;;;1.00;0.90;;;26.80;62.40;;;;;;4937431;29;20497;-85
2022/09/01 13:49:52;;;;;;;1.00;0.90;;;26.80;62.40;;;;;;4937320;29;20538;-85
2022/09/01 13:52:20;;;;;;;1.07;0.90;;;26.80;62.40;;;;;;4937124;29;20502;-85
2022/09/01 13:54:47;;;;;;;1.50;1.00;;;26.80;62.40;;;;;;4936773;29;20459;-85
2022/09/01 13:57:15;;;;;;;1.03;0.93;;;26.80;62.40;;;;;;4936936;29;20478;-85
2022/09/01 13:59:41;;;;;;;2.27;0.90;;;26.80;62.40;;;;;;4937074;29;20838;-85
2022/09/01 14:02:09;;;;;;;0.97;0.87;;;26.80;62.40;;;;;;4936931;29;20534;-85
2022/09/01 14:04:36;;;;;;;2.87;1.07;;;26.80;62.40;;;;;;4937015;29;20821;-85
2022/09/01 14:07:03;;;;;;;1.13;0.90;;;26.80;62.40;;;;;;4936882;29;20998;-85
2022/09/01 14:09:32;;;;;;;0.90;0.80;;;26.80;62.40;;;;;;4937063;29;20443;-85
2022/09/01 14:11:58;;;;;;;1.40;0.83;;;26.80;62.40;;;;;;4936774;29;20486;-85
2022/09/01 14:14:25;;;;;;;0.90;0.80;;;26.80;62.40;;;;;;4936640;29;20863;-85
2022/09/01 14:16:53;;;;;;;1.37;0.80;;;26.80;62.40;;;;;;4936791;29;20498;-86
2022/09/01 14:19:20;;;;;;;1.20;0.90;;;26.80;63.30;;;;;;4936684;29;20451;-86
2022/09/01 14:21:48;;;;;;;1.37;0.90;;;26.80;62.40;;;;;;4936483;29;20491;-85
2022/09/01 14:24:19;;;;;;;0.90;0.80;;;26.80;62.40;;;;;;4936659;29;20514;-86
2022/09/01 14:26:49;;;;;;;0.80;0.70;;;26.80;62.50;;;;;;4936901;29;20447;-86
2022/09/01 14:29:16;;;;;;;1.53;1.10;;;26.90;62.50;;;;;;4936500;29;20470;-90
2022/09/01 14:31:43;;;;;;;0.97;0.90;;;26.80;62.40;;;;;;4936510;29;20778;-86
2022/09/01 14:34:11;;;;;;;1.27;0.90;;;26.80;63.30;;;;;;4936618;29;20449;-86
2022/09/01 14:36:38;;;;;;;1.13;0.90;;;26.80;62.40;;;;;;4936574;29;20446;-89
2022/09/01 14:39:05;;;;;;;0.90;0.80;;;26.90;62.50;;;;;;4936299;29;20857;-89
2022/09/01 14:41:32;;;;;;;0.90;0.80;;;26.80;62.40;;;;;;4936225;29;20497;-85
2022/09/01 14:44:01;;;;;;;1.00;0.90;;;26.80;62.40;;;;;;4936346;29;20447;-85
2022/09/01 14:46:30;;;;;;;11.30;0.90;;;26.80;62.40;;;;;;4936197;29;20447;-86